Time;durP1;ratioP1;P1;durP2;ratioP2;P2;SDS_P1;SDS_P2;PMS_P1;PMS_P2;Temp;Humidity;BMP_temperature;BMP_pressure;BME280_temperature;BME280_humidity;BME280_pressure;Samples;Min_cycle;Max_cycle;Signal;HPM_P1;HPM_P2
2023/12/24 00:01:38;;;;;;;;;1.25;1.25;;;;;12.40;63.86;101210.75;5029416;28;45259;-68
2023/12/24 00:04:03;;;;;;;;;2.00;1.25;;;;;12.40;63.92;101210.75;5034909;28;45355;-67
2023/12/24 00:06:29;;;;;;;;;2.75;1.00;;;;;12.39;63.49;101216.88;5017280;28;45497;-68
2023/12/24 00:08:54;;;;;;;;;4.00;2.75;;;;;12.39;63.80;101217.72;5035301;28;72326;-68
2023/12/24 00:11:19;;;;;;;;;1.00;1.00;;;;;12.38;63.78;101216.03;5040173;28;73478;-67
2023/12/24 00:13:45;;;;;;;;;1.75;1.00;;;;;12.39;63.54;101220.34;5034443;28;45277;-67
2023/12/24 00:16:10;;;;;;;;;3.50;1.00;;;;;12.41;63.57;101225.56;5029839;28;65981;-68
2023/12/24 00:18:35;;;;;;;;;0.50;0.00;;;;;12.40;63.77;101229.13;5029179;28;46371;-68
2023/12/24 00:21:01;;;;;;;;;3.00;1.00;;;;;12.40;63.88;101226.50;5027413;28;52825;-68
2023/12/24 00:23:26;;;;;;;;;1.50;1.00;;;;;12.41;63.55;101221.22;5031303;28;64105;-68
2023/12/24 00:25:51;;;;;;;;;1.00;1.00;;;;;12.41;63.91;101225.56;5029565;28;69552;-68
2023/12/24 00:28:17;;;;;;;;;2.75;2.00;;;;;12.40;63.88;101222.09;5029224;28;71964;-68
2023/12/24 00:30:44;;;;;;;;;2.00;2.00;;;;;12.40;63.79;101222.09;5034236;28;45274;-68
2023/12/24 00:33:09;;;;;;;;;2.50;2.00;;;;;12.42;64.28;101222.06;5039118;28;45251;-67
2023/12/24 00:35:35;;;;;;;;;3.00;2.00;;;;;12.43;63.75;101218.50;5017653;28;73253;-68
2023/12/24 00:38:01;;;;;;;;;1.75;1.00;;;;;12.41;63.77;101223.84;5034129;28;47019;-68
2023/12/24 00:40:26;;;;;;;;;2.00;2.00;;;;;12.40;63.98;101218.63;5027356;28;45459;-68
2023/12/24 00:42:52;;;;;;;;;1.00;1.00;;;;;12.42;64.09;101216.81;5011040;28;45310;-67
2023/12/24 00:45:17;;;;;;;;;1.00;1.00;;;;;12.42;63.57;101208.94;5032504;28;46566;-67
2023/12/24 00:47:42;;;;;;;;;1.50;1.50;;;;;12.43;63.74;101211.53;5017888;28;45359;-68
2023/12/24 00:50:08;;;;;;;;;1.00;1.00;;;;;12.44;63.57;101213.22;5028660;28;59398;-68
2023/12/24 00:52:34;;;;;;;;;0.75;0.25;;;;;12.46;63.54;101190.41;5018305;28;45604;-68
2023/12/24 00:55:00;;;;;;;;;1.75;1.00;;;;;12.48;63.58;101190.38;5034453;28;45451;-67
2023/12/24 00:57:25;;;;;;;;;1.00;1.00;;;;;12.48;63.56;101187.75;5032939;28;64013;-67
2023/12/24 00:59:51;;;;;;;;;3.00;1.50;;;;;12.48;63.49;101190.38;5015926;28;45314;-67
2023/12/24 01:02:16;;;;;;;;;2.00;2.00;;;;;12.49;63.82;101184.22;5030642;28;45380;-67
2023/12/24 01:04:41;;;;;;;;;3.00;1.00;;;;;12.51;63.94;101179.81;5030678;28;45199;-68
2023/12/24 01:07:07;;;;;;;;;2.00;1.50;;;;;12.45;63.78;101183.47;5028024;28;72188;-68
2023/12/24 01:09:32;;;;;;;;;2.25;1.00;;;;;12.44;63.91;101186.13;5015007;28;72404;-68
2023/12/24 01:11:57;;;;;;;;;5.50;2.75;;;;;12.45;64.26;101187.84;5029613;28;60383;-67
2023/12/24 01:14:23;;;;;;;;;2.00;2.00;;;;;12.44;64.17;101179.09;5019379;28;55907;-67
2023/12/24 01:16:48;;;;;;;;;3.00;1.00;;;;;12.45;63.91;101191.34;5037963;28;45926;-67
2023/12/24 01:19:13;;;;;;;;;2.00;2.00;;;;;12.45;64.07;101187.84;5034316;28;70512;-67
2023/12/24 01:21:39;;;;;;;;;2.00;1.00;;;;;12.42;63.90;101188.78;5034956;28;45411;-67
2023/12/24 01:24:05;;;;;;;;;4.00;2.00;;;;;12.40;64.14;101180.09;5028852;28;72112;-68
2023/12/24 01:26:32;;;;;;;;;2.25;2.00;;;;;12.39;64.27;101177.50;5024321;28;46177;-66
2023/12/24 01:28:57;;;;;;;;;1.00;0.50;;;;;12.38;63.69;101181.91;5040228;28;45620;-68
2023/12/24 01:31:23;;;;;;;;;1.75;1.00;;;;;12.35;63.93;101184.59;5030604;28;48785;-67
2023/12/24 01:33:48;;;;;;;;;1.00;1.00;;;;;12.34;63.62;101189.00;5035571;28;45349;-67
2023/12/24 01:36:13;;;;;;;;;1.75;1.75;;;;;12.35;64.04;101181.97;5037174;28;49262;-67
2023/12/24 01:38:39;;;;;;;;;2.00;1.00;;;;;12.35;64.04;101184.59;5037686;28;73068;-67
2023/12/24 01:41:04;;;;;;;;;2.00;1.75;;;;;12.33;63.71;101175.91;5033892;28;60410;-67
2023/12/24 01:43:29;;;;;;;;;2.25;1.75;;;;;12.33;64.20;101176.78;5039206;28;70049;-67
2023/12/24 01:45:55;;;;;;;;;0.50;0.50;;;;;12.30;64.36;101171.59;5015297;28;68193;-68
2023/12/24 01:48:21;;;;;;;;;3.00;1.00;;;;;12.28;64.27;101181.28;5031067;28;45368;-68
2023/12/24 01:50:47;;;;;;;;;5.50;2.00;;;;;12.26;64.38;101185.72;5002586;28;70487;-67
2023/12/24 01:53:15;;;;;;;;;3.00;1.00;;;;;12.26;64.11;101177.00;5033799;28;45340;-68
2023/12/24 01:55:41;;;;;;;;;0.25;0.25;;;;;12.26;64.19;101185.72;5033612;28;46389;-67
2023/12/24 01:58:06;;;;;;;;;2.25;2.25;;;;;12.25;64.21;101180.50;5032674;28;65636;-68
2023/12/24 02:00:32;;;;;;;;;2.25;1.75;;;;;12.24;63.64;101177.03;5035373;28;45454;-68
2023/12/24 02:02:58;;;;;;;;;0.25;0.25;;;;;12.23;63.89;101172.66;5012742;28;61397;-67
2023/12/24 02:05:24;;;;;;;;;3.25;1.25;;;;;12.22;63.98;101157.00;5027134;28;47017;-66
2023/12/24 02:07:51;;;;;;;;;1.25;1.25;;;;;12.17;63.93;101164.97;5029991;28;45308;-67
2023/12/24 02:10:17;;;;;;;;;0.75;0.75;;;;;12.16;63.62;101147.50;5032579;28;68291;-68
2023/12/24 02:12:43;;;;;;;;;0.00;0.00;;;;;12.11;63.84;101152.88;5033584;28;45416;-68
2023/12/24 02:15:09;;;;;;;;;2.00;0.50;;;;;12.10;63.76;101151.16;5008380;28;45386;-69
2023/12/24 02:17:34;;;;;;;;;1.00;1.00;;;;;12.09;63.70;101145.94;5032751;28;45391;-68
2023/12/24 02:19:59;;;;;;;;;2.00;0.00;;;;;12.09;63.74;101132.81;5029449;28;57305;-67
2023/12/24 02:22:25;;;;;;;;;1.00;1.00;;;;;12.06;64.03;101135.56;5037530;28;66831;-67
2023/12/24 02:24:51;;;;;;;;;2.00;1.50;;;;;12.04;64.19;101129.47;5029052;28;46396;-68
2023/12/24 02:27:22;;;;;;;;;0.25;0.25;;;;;12.02;64.57;101134.75;5029268;28;49001;-68
2023/12/24 02:29:50;;;;;;;;;1.00;1.00;;;;;12.03;64.54;101139.09;5029550;28;45452;-68
2023/12/24 02:32:17;;;;;;;;;1.25;1.00;;;;;12.04;64.17;101153.06;5004368;28;45548;-68
2023/12/24 02:34:48;;;;;;;;;1.00;1.00;;;;;12.04;64.20;101159.19;5016410;28;45290;-68
2023/12/24 02:37:14;;;;;;;;;0.00;0.00;;;;;12.04;64.62;101168.81;5015323;28;45372;-68
2023/12/24 02:39:41;;;;;;;;;1.00;0.75;;;;;12.09;64.34;101166.94;5008983;28;45491;-68
2023/12/24 02:42:07;;;;;;;;;1.25;1.00;;;;;12.11;64.17;101160.75;5034238;28;45306;-67
2023/12/24 02:44:33;;;;;;;;;0.50;0.25;;;;;12.14;64.08;101168.53;5008726;28;45443;-67
2023/12/24 02:46:58;;;;;;;;;1.00;0.00;;;;;12.18;64.17;101171.94;5030564;28;45210;-68
2023/12/24 02:49:23;;;;;;;;;3.00;2.00;;;;;12.19;64.05;101157.06;5026629;28;66233;-68
2023/12/24 02:51:49;;;;;;;;;1.00;1.00;;;;;12.22;64.39;101159.63;5031683;28;55982;-67
2023/12/24 02:54:14;;;;;;;;;4.00;1.00;;;;;12.20;64.51;101143.91;5035666;28;70212;-67
2023/12/24 02:56:39;;;;;;;;;1.00;1.00;;;;;12.20;64.36;101133.41;5030047;28;74154;-68
2023/12/24 02:59:05;;;;;;;;;1.00;1.00;;;;;12.19;64.55;101133.44;5011629;28;66342;-68
2023/12/24 03:01:30;;;;;;;;;0.50;0.50;;;;;12.20;64.48;101136.03;5007134;28;67242;-66
2023/12/24 03:03:56;;;;;;;;;0.00;0.00;;;;;12.21;64.22;101129.03;5038909;28;45442;-67
2023/12/24 03:06:22;;;;;;;;;1.50;0.75;;;;;12.21;64.31;101122.00;5015113;28;45361;-68
2023/12/24 03:08:47;;;;;;;;;2.00;2.00;;;;;12.22;64.71;101130.75;5022225;28;45301;-67
2023/12/24 03:11:12;;;;;;;;;2.75;1.00;;;;;12.22;64.52;101123.72;5037881;28;58057;-67
2023/12/24 03:13:38;;;;;;;;;0.25;0.25;;;;;12.22;64.55;101120.25;5037860;28;62908;-67
2023/12/24 03:16:03;;;;;;;;;2.00;2.00;;;;;12.22;64.34;101128.13;5034655;28;57117;-68
2023/12/24 03:18:29;;;;;;;;;1.00;0.50;;;;;12.22;64.66;101120.25;5032440;28;45245;-68
2023/12/24 03:20:54;;;;;;;;;1.00;1.00;;;;;12.20;64.62;101132.53;5031700;28;72861;-68
2023/12/24 03:23:19;;;;;;;;;1.00;1.00;;;;;12.19;64.78;101126.44;5036350;28;74443;-68
2023/12/24 03:25:45;;;;;;;;;1.00;1.00;;;;;12.21;64.83;101129.03;5041097;28;73206;-68
2023/12/24 03:28:10;;;;;;;;;1.00;1.00;;;;;12.17;64.75;101109.03;5036685;28;57441;-67
2023/12/24 03:30:35;;;;;;;;;1.00;0.75;;;;;12.19;64.67;101112.47;5041107;28;45562;-67
2023/12/24 03:33:01;;;;;;;;;1.00;1.00;;;;;12.18;64.82;101105.47;5013336;28;46065;-67
2023/12/24 03:35:26;;;;;;;;;0.50;0.50;;;;;12.15;65.26;101094.19;5038560;28;45325;-68
2023/12/24 03:37:52;;;;;;;;;1.00;1.00;;;;;12.15;65.05;101082.81;5034952;28;69344;-67
2023/12/24 03:40:17;;;;;;;;;0.00;0.00;;;;;12.17;65.09;101095.91;5012342;28;70360;-67
2023/12/24 03:42:42;;;;;;;;;1.00;1.00;;;;;12.12;65.14;101088.16;5037078;28;45419;-68
2023/12/24 03:45:08;;;;;;;;;0.00;0.00;;;;;12.13;65.29;101095.97;5035280;28;45254;-67
2023/12/24 03:47:34;;;;;;;;;1.00;0.00;;;;;12.14;65.33;101088.97;5030843;28;67601;-68
2023/12/24 03:49:59;;;;;;;;;2.00;0.00;;;;;12.11;65.23;101087.31;5008122;28;45468;-67
2023/12/24 03:52:24;;;;;;;;;2.00;0.50;;;;;12.08;65.01;101089.16;5021919;28;45448;-68
2023/12/24 03:54:50;;;;;;;;;0.50;0.50;;;;;12.07;65.19;101103.16;5029873;28;67895;-67
2023/12/24 03:57:15;;;;;;;;;0.25;0.25;;;;;12.06;65.02;101093.59;5029718;28;68495;-68
2023/12/24 03:59:40;;;;;;;;;0.00;0.00;;;;;12.05;65.10;101074.34;5040457;28;72838;-68
2023/12/24 04:02:06;;;;;;;;;0.00;0.00;;;;;12.02;65.29;101079.66;5036667;28;69067;-68
2023/12/24 04:04:31;;;;;;;;;1.00;1.00;;;;;11.99;65.70;101085.00;5027524;28;45381;-68
2023/12/24 04:06:57;;;;;;;;;0.75;0.75;;;;;11.99;65.39;101089.38;5033245;28;55287;-68
2023/12/24 04:09:22;;;;;;;;;2.00;0.00;;;;;11.98;65.33;101085.91;5024130;28;70095;-68
2023/12/24 04:11:48;;;;;;;;;2.00;0.00;;;;;11.95;65.77;101083.34;5030135;28;60708;-68
2023/12/24 04:14:14;;;;;;;;;0.00;0.00;;;;;11.93;65.65;101077.28;5029178;28;45871;-68
2023/12/24 04:16:39;;;;;;;;;0.00;0.00;;;;;11.92;65.80;101070.34;5029871;28;45406;-68
2023/12/24 04:19:05;;;;;;;;;2.00;0.00;;;;;11.94;65.62;101066.78;5023255;28;58728;-68
2023/12/24 04:21:33;;;;;;;;;2.75;1.75;;;;;11.94;65.41;101058.91;5030456;28;46394;-68
2023/12/24 04:24:01;;;;;;;;;1.00;0.00;;;;;11.92;65.24;101046.75;5035212;28;45229;-68
2023/12/24 04:26:26;;;;;;;;;0.00;0.00;;;;;11.91;65.24;101037.16;5021729;28;45543;-68
2023/12/24 04:28:52;;;;;;;;;2.00;1.00;;;;;11.90;64.98;101024.91;5035677;28;45202;-68
2023/12/24 04:31:18;;;;;;;;;0.00;0.00;;;;;11.88;65.33;101031.94;5030470;28;46156;-68
2023/12/24 04:33:43;;;;;;;;;2.00;0.50;;;;;11.87;65.49;101015.34;5029948;28;45345;-68
2023/12/24 04:36:08;;;;;;;;;2.00;1.00;;;;;11.84;65.09;101019.81;5012736;28;57787;-66
2023/12/24 04:38:34;;;;;;;;;1.25;0.00;;;;;11.81;65.34;101015.53;5038994;28;70901;-66
2023/12/24 04:40:59;;;;;;;;;4.25;1.00;;;;;11.75;65.24;101019.16;5017213;28;67265;-67
2023/12/24 04:43:25;;;;;;;;;1.50;0.00;;;;;11.69;65.49;101011.47;5035001;28;46506;-67
2023/12/24 04:45:50;;;;;;;;;1.50;1.00;;;;;11.66;65.97;101016.81;5035896;28;45443;-68
2023/12/24 04:48:15;;;;;;;;;2.00;0.00;;;;;11.59;65.47;101010.84;5026680;28;73272;-67
2023/12/24 04:50:41;;;;;;;;;4.00;0.00;;;;;11.55;65.65;101013.63;5028854;28;75969;-67
2023/12/24 04:53:06;;;;;;;;;1.00;1.00;;;;;11.50;65.85;101021.59;5032954;28;72110;-67
2023/12/24 04:55:31;;;;;;;;;4.00;1.00;;;;;11.47;66.11;101020.81;5025068;28;69431;-67
2023/12/24 04:57:57;;;;;;;;;3.00;1.25;;;;;11.41;66.68;101016.59;5040716;28;45258;-67
2023/12/24 05:00:22;;;;;;;;;2.25;1.00;;;;;11.39;66.33;101006.16;5031495;28;64225;-66
2023/12/24 05:02:48;;;;;;;;;3.00;1.00;;;;;11.38;66.42;101017.56;5040450;28;45422;-67
2023/12/24 05:05:14;;;;;;;;;2.00;1.00;;;;;11.33;66.93;101011.56;5034433;28;68965;-67
2023/12/24 05:07:39;;;;;;;;;1.50;1.00;;;;;11.32;66.62;101025.56;5022053;28;45538;-67
2023/12/24 05:10:05;;;;;;;;;2.00;1.00;;;;;11.32;66.90;101024.69;5028011;28;46380;-67
2023/12/24 05:12:33;;;;;;;;;2.50;1.00;;;;;11.31;66.73;101033.44;5039691;28;45470;-67
2023/12/24 05:15:01;;;;;;;;;4.75;1.75;;;;;11.30;66.83;101029.97;5040355;28;45288;-67
2023/12/24 05:17:26;;;;;;;;;3.25;1.00;;;;;11.28;67.08;101052.75;5016861;28;45543;-67
2023/12/24 05:19:51;;;;;;;;;1.00;1.00;;;;;11.30;67.15;101039.59;5026235;28;45424;-67
2023/12/24 05:22:17;;;;;;;;;4.00;2.00;;;;;11.30;67.31;101048.31;5021175;28;45684;-67
2023/12/24 05:24:42;;;;;;;;;1.00;1.00;;;;;11.33;67.20;101048.25;5034384;28;45398;-67
2023/12/24 05:27:08;;;;;;;;;3.50;1.00;;;;;11.34;67.03;101052.56;5033978;28;73148;-67
2023/12/24 05:29:33;;;;;;;;;1.25;1.00;;;;;11.37;66.78;101046.41;5038909;28;45325;-67
2023/12/24 05:31:59;;;;;;;;;2.50;1.00;;;;;11.38;67.32;101032.38;5034446;28;45400;-67
2023/12/24 05:34:25;;;;;;;;;3.00;1.00;;;;;11.40;67.11;101030.59;5027967;28;45270;-67
2023/12/24 05:36:50;;;;;;;;;1.00;1.00;;;;;11.42;66.68;101009.59;5021457;28;59333;-67
2023/12/24 05:39:15;;;;;;;;;3.00;1.00;;;;;11.45;66.62;101020.00;5017695;28;61904;-67
2023/12/24 05:41:44;;;;;;;;;2.00;2.00;;;;;11.46;66.44;101006.84;5038550;28;45307;-67
2023/12/24 05:44:10;;;;;;;;;2.50;1.00;;;;;11.48;66.36;100993.72;5034585;28;45365;-67
2023/12/24 05:46:35;;;;;;;;;1.00;0.00;;;;;11.48;66.71;100988.47;5020021;28;45635;-67
2023/12/24 05:49:00;;;;;;;;;4.50;1.00;;;;;11.49;66.63;100979.69;5033235;28;73671;-67
2023/12/24 05:51:26;;;;;;;;;2.25;0.75;;;;;11.48;66.80;100981.47;5033096;28;68026;-67
2023/12/24 05:53:51;;;;;;;;;4.75;1.00;;;;;11.50;66.87;100981.44;5034359;28;63661;-67
2023/12/24 05:56:16;;;;;;;;;5.00;1.00;;;;;11.53;66.67;100976.13;5025349;28;68579;-67
2023/12/24 05:58:41;;;;;;;;;2.50;1.00;;;;;11.55;66.45;100975.16;5031309;28;69462;-67
2023/12/24 06:01:07;;;;;;;;;1.00;1.00;;;;;11.55;66.92;100972.53;5035737;28;45245;-67
2023/12/24 06:03:32;;;;;;;;;3.00;1.50;;;;;11.57;66.77;100969.88;5021485;28;48384;-67
2023/12/24 06:05:57;;;;;;;;;1.50;1.00;;;;;11.57;66.91;100949.75;5026718;28;72412;-67
2023/12/24 06:08:23;;;;;;;;;1.00;1.00;;;;;11.59;66.88;100968.06;5029527;28;46350;-67
2023/12/24 06:10:48;;;;;;;;;1.25;0.25;;;;;11.58;66.88;100961.97;5027292;28;72158;-67
2023/12/24 06:13:14;;;;;;;;;2.00;1.00;;;;;11.58;67.02;100969.84;5030292;28;45405;-67
2023/12/24 06:15:39;;;;;;;;;1.75;1.75;;;;;11.59;67.04;100971.53;5027776;28;45243;-67
2023/12/24 06:18:05;;;;;;;;;4.00;2.00;;;;;11.61;67.08;100971.50;5030493;28;55994;-67
2023/12/24 06:20:35;;;;;;;;;1.75;1.75;;;;;11.63;66.76;100968.84;5018268;28;45380;-67
2023/12/24 06:23:00;;;;;;;;;2.00;2.00;;;;;11.62;66.68;100965.38;5028324;28;45428;-68
2023/12/24 06:25:26;;;;;;;;;0.50;0.00;;;;;11.61;66.74;100981.97;5016974;28;45299;-68
2023/12/24 06:27:51;;;;;;;;;5.00;1.50;;;;;11.63;67.19;100960.97;5035810;28;46605;-67
2023/12/24 06:30:16;;;;;;;;;3.75;1.25;;;;;11.64;66.92;100973.19;5025709;28;71928;-67
2023/12/24 06:32:43;;;;;;;;;1.00;1.00;;;;;11.66;66.88;100976.63;5020410;28;65763;-68
2023/12/24 06:35:09;;;;;;;;;1.25;1.25;;;;;11.67;66.61;100975.72;5012968;28;45395;-68
2023/12/24 06:37:35;;;;;;;;;1.25;1.00;;;;;11.65;67.17;100965.28;5043690;28;45455;-68
2023/12/24 06:40:00;;;;;;;;;1.00;0.25;;;;;11.66;66.76;100951.25;5028477;28;57841;-69
2023/12/24 06:42:25;;;;;;;;;2.00;0.00;;;;;11.66;66.86;100948.63;5024419;28;53817;-67
2023/12/24 06:44:51;;;;;;;;;5.50;1.50;;;;;11.66;67.13;100961.75;5031627;28;45230;-67
2023/12/24 06:47:16;;;;;;;;;1.00;1.00;;;;;11.67;66.62;100952.13;5030062;28;74454;-67
2023/12/24 06:49:44;;;;;;;;;3.50;0.50;;;;;11.68;67.27;100959.94;5037678;28;70338;-67
2023/12/24 06:52:13;;;;;;;;;2.75;1.00;;;;;11.66;67.10;100959.13;5042446;28;45451;-67
2023/12/24 06:54:38;;;;;;;;;6.50;2.00;;;;;11.67;67.26;100950.38;5034198;28;45433;-67
2023/12/24 06:57:06;;;;;;;;;1.00;1.00;;;;;11.68;66.80;100954.69;5034780;28;73810;-67
2023/12/24 06:59:31;;;;;;;;;5.75;2.00;;;;;11.69;67.00;100959.06;5017373;28;45648;-67
2023/12/24 07:01:56;;;;;;;;;3.25;1.00;;;;;11.72;66.73;100960.72;5035395;28;45416;-67
2023/12/24 07:04:22;;;;;;;;;2.50;1.00;;;;;11.71;66.76;100964.25;5017101;28;68800;-67
2023/12/24 07:06:47;;;;;;;;;3.50;1.00;;;;;11.72;67.06;100966.84;5036867;28;45488;-67
2023/12/24 07:09:12;;;;;;;;;1.00;1.00;;;;;11.77;66.95;100961.44;5034711;28;71067;-67
2023/12/24 07:11:38;;;;;;;;;4.25;0.75;;;;;11.79;66.74;100967.50;5033049;28;45521;-67
2023/12/24 07:14:03;;;;;;;;;3.00;2.00;;;;;11.79;66.73;100972.75;5032100;28;45436;-68
2023/12/24 07:16:29;;;;;;;;;3.50;1.50;;;;;11.80;67.14;100969.22;5037916;28;74010;-67
2023/12/24 07:18:54;;;;;;;;;2.75;1.50;;;;;11.81;66.67;100975.31;5032473;28;45297;-67
2023/12/24 07:21:20;;;;;;;;;4.25;2.00;;;;;11.83;66.94;100965.66;5038885;28;45335;-67
2023/12/24 07:23:45;;;;;;;;;6.00;1.00;;;;;11.82;66.95;100971.81;5034892;28;45298;-67
2023/12/24 07:26:10;;;;;;;;;4.00;2.00;;;;;11.81;66.58;100968.34;5023132;28;69433;-67
2023/12/24 07:28:36;;;;;;;;;2.00;1.25;;;;;11.82;66.60;100970.03;5030869;28;65149;-67
2023/12/24 07:31:01;;;;;;;;;3.00;2.00;;;;;11.80;66.83;100971.00;5027391;28;45444;-67
2023/12/24 07:33:27;;;;;;;;;2.00;2.00;;;;;11.80;66.82;100969.22;5032848;28;72938;-68
2023/12/24 07:35:52;;;;;;;;;1.00;1.00;;;;;11.78;67.18;100966.66;5038487;28;45324;-67
2023/12/24 07:38:18;;;;;;;;;1.50;1.00;;;;;11.81;67.15;100970.97;5035076;28;73209;-68
2023/12/24 07:40:43;;;;;;;;;4.50;1.00;;;;;11.83;67.21;100965.66;5017779;28;68284;-69
2023/12/24 07:43:08;;;;;;;;;1.75;1.00;;;;;11.82;67.33;100961.31;5040499;28;45223;-67
2023/12/24 07:45:34;;;;;;;;;4.00;1.00;;;;;11.80;67.34;100965.75;5039787;28;74299;-68
2023/12/24 07:47:59;;;;;;;;;4.00;2.00;;;;;11.78;67.36;100960.56;5023450;28;45334;-68
2023/12/24 07:50:24;;;;;;;;;1.25;1.25;;;;;11.79;67.64;100962.25;5029353;28;45364;-68
2023/12/24 07:52:50;;;;;;;;;1.50;1.50;;;;;11.80;67.61;100957.91;5030004;28;45349;-67
2023/12/24 07:55:15;;;;;;;;;3.25;2.00;;;;;11.82;68.28;100972.66;5028927;28;60774;-67
2023/12/24 07:57:40;;;;;;;;;3.00;2.00;;;;;11.83;67.99;100955.16;5031653;28;45385;-68
2023/12/24 08:00:07;;;;;;;;;3.25;2.00;;;;;11.85;67.97;100966.50;5030224;28;45262;-68
2023/12/24 08:02:32;;;;;;;;;2.50;1.75;;;;;11.82;68.08;100958.72;5034144;28;45147;-68
2023/12/24 08:04:58;;;;;;;;;3.50;1.00;;;;;11.83;67.83;100970.91;5023324;28;47345;-67
2023/12/24 08:07:23;;;;;;;;;2.00;1.50;;;;;11.83;68.13;100963.91;5029514;28;72022;-67
2023/12/24 08:09:49;;;;;;;;;1.00;0.25;;;;;11.82;68.53;100959.56;5029086;28;45362;-67
2023/12/24 08:12:15;;;;;;;;;1.25;1.25;;;;;11.83;68.07;100970.91;5023320;28;45357;-67
2023/12/24 08:14:40;;;;;;;;;3.00;1.00;;;;;11.86;68.26;100990.03;5033280;28;46408;-68
2023/12/24 08:17:06;;;;;;;;;4.00;1.25;;;;;11.86;67.96;100981.31;5033595;28;46503;-67
2023/12/24 08:19:31;;;;;;;;;1.00;1.00;;;;;11.85;68.08;100972.59;5030399;28;45257;-67
2023/12/24 08:21:56;;;;;;;;;3.50;1.00;;;;;11.87;68.24;100981.25;5010369;28;62470;-69
2023/12/24 08:24:22;;;;;;;;;2.50;1.00;;;;;11.89;68.01;100987.31;5018992;28;48231;-67
2023/12/24 08:26:47;;;;;;;;;2.75;1.50;;;;;11.94;68.22;100987.22;5040142;28;70676;-67
2023/12/24 08:29:13;;;;;;;;;2.25;1.50;;;;;11.96;67.75;100988.03;5019046;28;45312;-67
2023/12/24 08:31:38;;;;;;;;;3.75;1.00;;;;;12.00;67.60;100991.44;5039713;28;73240;-68
2023/12/24 08:34:03;;;;;;;;;3.25;1.00;;;;;11.98;67.42;100999.34;5029239;28;74581;-67
2023/12/24 08:36:28;;;;;;;;;3.00;1.00;;;;;11.99;67.66;100997.56;5018148;28;73217;-68
2023/12/24 08:38:54;;;;;;;;;3.50;1.00;;;;;11.99;67.25;100990.59;5037056;28;68407;-67
2023/12/24 08:41:19;;;;;;;;;2.75;1.00;;;;;12.00;67.53;100988.81;5036576;28;45517;-68
2023/12/24 08:43:45;;;;;;;;;5.50;3.00;;;;;12.02;67.32;100987.84;5035797;28;46428;-68
2023/12/24 08:46:10;;;;;;;;;4.00;2.00;;;;;12.04;67.33;100988.69;5021602;28;45334;-68
2023/12/24 08:48:35;;;;;;;;;3.00;1.00;;;;;12.07;66.90;100990.34;5035173;28;45169;-68
2023/12/24 08:51:01;;;;;;;;;7.00;2.75;;;;;12.07;66.80;100988.59;5032927;28;45219;-68
2023/12/24 08:53:27;;;;;;;;;4.00;1.00;;;;;12.12;67.38;100988.47;5034115;28;45888;-68
2023/12/24 08:55:52;;;;;;;;;5.50;1.00;;;;;12.14;66.73;100989.28;5022364;28;52668;-68
2023/12/24 08:58:18;;;;;;;;;3.00;1.00;;;;;12.19;67.12;100984.75;5033835;28;69371;-67
2023/12/24 09:00:43;;;;;;;;;4.50;1.00;;;;;12.19;66.50;100994.41;5020646;28;45530;-69
2023/12/24 09:03:09;;;;;;;;;3.75;2.00;;;;;12.22;66.49;100991.69;5037354;28;46050;-68
2023/12/24 09:05:34;;;;;;;;;5.50;2.00;;;;;12.21;66.31;100993.44;5034654;28;45449;-67
2023/12/24 09:08:00;;;;;;;;;2.75;0.75;;;;;12.23;66.48;100993.38;5027399;28;63030;-67
2023/12/24 09:10:25;;;;;;;;;1.50;1.00;;;;;12.22;66.19;100991.69;5018215;28;45333;-68
2023/12/24 09:12:50;;;;;;;;;5.50;2.00;;;;;12.25;66.79;101002.06;5033126;28;75661;-68
2023/12/24 09:15:16;;;;;;;;;5.50;2.00;;;;;12.30;66.17;101000.16;5018644;28;69671;-68
2023/12/24 09:17:41;;;;;;;;;2.25;1.00;;;;;12.34;66.35;100999.16;5035580;28;45388;-68
2023/12/24 09:20:07;;;;;;;;;1.00;1.00;;;;;12.41;66.39;101005.09;5034663;28;65646;-68
2023/12/24 09:22:33;;;;;;;;;7.00;2.75;;;;;12.47;66.33;101016.28;5040139;28;46283;-68
2023/12/24 09:24:58;;;;;;;;;1.00;1.00;;;;;12.51;65.99;101002.13;5016293;28;45255;-68
2023/12/24 09:27:23;;;;;;;;;3.25;1.00;;;;;12.53;65.93;101009.97;5017233;28;45430;-66
2023/12/24 09:29:49;;;;;;;;;2.25;2.00;;;;;12.57;65.88;101010.72;5028806;28;73458;-66
2023/12/24 09:32:14;;;;;;;;;5.00;2.00;;;;;12.56;65.65;101002.00;5034539;28;55663;-68
2023/12/24 09:34:39;;;;;;;;;3.75;2.00;;;;;12.59;65.90;101006.28;5027678;28;66184;-68
2023/12/24 09:37:05;;;;;;;;;3.25;2.00;;;;;12.61;65.55;100996.63;5032934;28;68139;-67
2023/12/24 09:39:30;;;;;;;;;3.50;1.75;;;;;12.64;65.40;101001.75;5019309;28;62343;-68
2023/12/24 09:41:57;;;;;;;;;3.25;3.00;;;;;12.66;65.40;101006.06;5029651;28;47525;-68
2023/12/24 09:44:35;;;;;;;;;6.00;2.25;;;;;12.68;65.56;100996.38;5006077;28;48830;-67
2023/12/24 09:47:00;;;;;;;;;1.25;0.50;;;;;12.72;65.32;101003.25;5021690;28;45329;-68
2023/12/24 09:49:25;;;;;;;;;4.75;3.25;;;;;12.75;65.17;100989.16;5035982;28;67995;-66
2023/12/24 09:51:52;;;;;;;;;4.75;1.00;;;;;12.77;64.93;100987.34;5034858;28;70252;-68
2023/12/24 09:54:18;;;;;;;;;5.00;2.50;;;;;12.80;64.77;101002.13;5027906;28;66968;-68
2023/12/24 09:56:43;;;;;;;;;2.00;1.00;;;;;12.79;65.01;101000.44;5032263;28;45286;-68
2023/12/24 09:59:09;;;;;;;;;3.25;2.25;;;;;12.81;65.08;101001.25;5035300;28;64212;-68
2023/12/24 10:01:43;;;;;;;;;4.50;2.75;;;;;12.81;65.35;100988.97;5031957;28;45337;-68
2023/12/24 10:04:08;;;;;;;;;3.00;2.25;;;;;12.79;64.93;100985.53;5016275;28;45717;-68
2023/12/24 10:06:33;;;;;;;;;7.00;3.00;;;;;12.86;65.23;101005.44;5029748;28;68320;-67
2023/12/24 10:08:58;;;;;;;;;5.00;2.00;;;;;12.89;64.92;100994.84;5013304;28;72115;-67
2023/12/24 10:11:24;;;;;;;;;7.00;3.00;;;;;12.92;64.79;101001.75;5035405;28;73754;-68
2023/12/24 10:13:59;;;;;;;;;3.50;2.00;;;;;12.95;64.97;100998.16;5038073;28;71314;-68
2023/12/24 10:16:25;;;;;;;;;2.25;2.00;;;;;12.96;64.78;101006.00;5036873;28;45405;-68
2023/12/24 10:18:51;;;;;;;;;3.25;3.00;;;;;12.98;64.93;101004.19;5015824;28;49677;-68
2023/12/24 10:21:18;;;;;;;;;5.00;2.00;;;;;12.98;64.82;100992.78;5032901;28;46296;-68
2023/12/24 10:23:43;;;;;;;;;5.00;2.00;;;;;13.04;64.51;101001.34;5034194;28;45260;-66
2023/12/24 10:26:11;;;;;;;;;6.25;2.00;;;;;13.08;64.83;100996.84;5030465;28;45408;-66
2023/12/24 10:28:53;;;;;;;;;6.00;3.00;;;;;13.10;64.28;100998.53;5026426;28;45464;-66
2023/12/24 10:31:18;;;;;;;;;5.50;1.25;;;;;13.13;64.20;100987.03;5033362;28;45492;-67
2023/12/24 10:33:43;;;;;;;;;4.00;3.00;;;;;13.14;64.50;100977.38;5049812;28;51108;-67
2023/12/24 10:36:09;;;;;;;;;3.00;2.00;;;;;13.17;64.05;100979.91;5035021;28;45388;-66
2023/12/24 10:38:35;;;;;;;;;6.50;2.50;;;;;13.19;64.43;100981.59;5021214;28;45851;-67
2023/12/24 10:41:04;;;;;;;;;2.25;2.25;;;;;13.21;64.53;100979.78;5033452;28;46232;-67
2023/12/24 10:43:30;;;;;;;;;5.25;2.25;;;;;13.27;64.26;100979.53;5034337;28;45892;-68
2023/12/24 10:45:58;;;;;;;;;6.00;1.75;;;;;13.32;64.04;100983.84;5009680;28;45479;-68
2023/12/24 10:48:23;;;;;;;;;2.75;1.75;;;;;13.39;64.21;100977.44;5011160;28;45508;-68
2023/12/24 10:50:50;;;;;;;;;4.75;2.00;;;;;13.43;64.19;100982.53;5020002;28;63862;-68
2023/12/24 10:53:15;;;;;;;;;7.00;4.00;;;;;13.47;63.65;100981.53;5026350;28;45951;-67
2023/12/24 10:55:46;;;;;;;;;9.00;3.00;;;;;13.54;64.06;100973.41;5031922;28;45358;-68
2023/12/24 10:58:33;;;;;;;;;5.00;5.00;;;;;13.54;63.68;100983.94;5033208;28;45201;-68
2023/12/24 11:01:07;;;;;;;;;5.00;3.75;;;;;13.54;63.67;100981.31;5015726;28;46632;-68
2023/12/24 11:03:48;;;;;;;;;2.00;2.00;;;;;13.58;63.47;100977.66;5028314;28;45762;-67
2023/12/24 11:06:38;;;;;;;;;7.50;3.00;;;;;13.61;63.86;100967.88;5035964;28;45368;-66
2023/12/24 11:09:08;;;;;;;;;2.75;2.50;;;;;13.63;63.47;100973.97;5036252;28;45306;-66
2023/12/24 11:11:52;;;;;;;;;4.25;3.00;;;;;13.64;63.83;100962.50;5011111;28;45937;-67
2023/12/24 11:14:36;;;;;;;;;3.00;2.75;;;;;13.67;63.61;100965.03;5023483;28;45793;-67
2023/12/24 11:17:02;;;;;;;;;3.25;2.00;;;;;13.69;63.66;100949.19;5034683;28;45440;-67
2023/12/24 11:19:27;;;;;;;;;5.25;3.00;;;;;13.65;63.88;100961.59;5026369;28;49415;-67